Aérodrome :
LOGIN :

S'inscrire | Disclaimer

   EN    FR    IT 

 










Légende :    VFR   VFR Marginal   IFR   IFR Intensif   IFR Très Intensif
Visi : 
Plafond : 
>= 8 km
>= 3000ft
5 à 8 km
1000 à 3000 ft
1500m à 5 km
500 à 1000 ft
800 à 1500m
200 à 500 ft
< 800m
< 200 ft
Symboles :   Orages  Brouillard  Fortes neiges  Fortes précipitations  Vent > 20 kt
SIGMETs :   Divers  Orages  Givrage  Turbulence  Onde Orograph.  Cendres Volcan.






- Altitude de l'aérodrome : 74 ft
- Code IATA : LRH


LFBH - La Rochelle Ile de Ré

DERNIER METAR :
  • 210330Z AUTO 07004KT CAVOK 09/08 Q1015 TEMPO 0800 FG VV///

METARs EXPIRÉS :
  • 210300Z AUTO 04004KT CAVOK 09/09 Q1015 TEMPO 3000 BR BKN004
  • 210230Z AUTO 03004KT CAVOK 10/09 Q1015 TEMPO 3000 BR BKN004
  • 210200Z AUTO 02003KT CAVOK 10/09 Q1014 TEMPO 3000 BR BKN004
  • 210130Z AUTO 01003KT CAVOK 09/09 Q1014 TEMPO 3000 BR BKN004
  • 210100Z AUTO 03003KT CAVOK 10/09 Q1014 TEMPO 3000 SHRA BKN010 BKN040CB

TAF TAF LFBH
Valide du 21 à 00h jusqu'au 22 à 00h UTC


202300Z 2100/2124 04006KT 9999 BKN040
PROB30
TEMPO 2100/2102 3000 SHRA BKN010 BKN040CB
PROB40 2103/2110 3000 BR BKN004
PROB30 2105/2107 0800 FG VV///
TEMPO 2110/2113 BKN010
ATIS : +33 5 46 00 13 92



MET'MAP, la Météo Aéronautique d'un coup d'oeil ! - Copyright ORBIFLY Décembre 2007 - Disclaimer

ORBIFLY MET'MAP TEAM :

Programmation & Développement : Alexandra Zaïnal
Conception & Développement : Baudouin d'Aumeries
Co-Programmation & Développement : Marc-Olivier Méhu
Soutien technique & logistique : Manuel Goepfert

Contact : metmap@orbifly.com




SOURCES & CREDITS :

   NOAA